sensor_id;sensor_type;location;lat;lon;timestamp;P1;durP1;ratioP1;P2;durP2;ratioP2
11616;SDS011;5864;52.998;9.068;2023-12-07T00:02:42;21.30;;;14.60;;
11616;SDS011;5864;52.998;9.068;2023-12-07T00:05:29;23.27;;;16.07;;
11616;SDS011;5864;52.998;9.068;2023-12-07T00:08:14;22.03;;;15.50;;
11616;SDS011;5864;52.998;9.068;2023-12-07T00:11:00;20.93;;;15.83;;
11616;SDS011;5864;52.998;9.068;2023-12-07T00:13:45;20.27;;;15.77;;
11616;SDS011;5864;52.998;9.068;2023-12-07T00:16:32;21.73;;;15.63;;
11616;SDS011;5864;52.998;9.068;2023-12-07T00:19:17;20.50;;;15.20;;
11616;SDS011;5864;52.998;9.068;2023-12-07T00:22:04;24.57;;;16.93;;
11616;SDS011;5864;52.998;9.068;2023-12-07T00:24:50;20.53;;;14.87;;
11616;SDS011;5864;52.998;9.068;2023-12-07T00:27:35;22.20;;;15.77;;
11616;SDS011;5864;52.998;9.068;2023-12-07T00:30:21;19.20;;;14.30;;
11616;SDS011;5864;52.998;9.068;2023-12-07T00:33:06;23.03;;;16.17;;
11616;SDS011;5864;52.998;9.068;2023-12-07T00:35:52;22.37;;;15.30;;
11616;SDS011;5864;52.998;9.068;2023-12-07T00:38:40;21.67;;;15.23;;
11616;SDS011;5864;52.998;9.068;2023-12-07T00:41:25;21.70;;;15.47;;
11616;SDS011;5864;52.998;9.068;2023-12-07T00:44:11;20.57;;;14.80;;
11616;SDS011;5864;52.998;9.068;2023-12-07T00:46:57;21.20;;;15.27;;
11616;SDS011;5864;52.998;9.068;2023-12-07T00:49:42;20.53;;;14.53;;
11616;SDS011;5864;52.998;9.068;2023-12-07T00:52:28;24.93;;;16.30;;
11616;SDS011;5864;52.998;9.068;2023-12-07T00:55:15;21.27;;;15.70;;
11616;SDS011;5864;52.998;9.068;2023-12-07T00:58:01;21.57;;;15.53;;
11616;SDS011;5864;52.998;9.068;2023-12-07T01:00:47;21.40;;;15.13;;
11616;SDS011;5864;52.998;9.068;2023-12-07T01:03:32;23.03;;;15.63;;
11616;SDS011;5864;52.998;9.068;2023-12-07T01:06:19;20.63;;;16.00;;
11616;SDS011;5864;52.998;9.068;2023-12-07T01:09:04;21.27;;;15.30;;
11616;SDS011;5864;52.998;9.068;2023-12-07T01:11:51;22.10;;;15.20;;
11616;SDS011;5864;52.998;9.068;2023-12-07T01:14:37;21.60;;;15.53;;
11616;SDS011;5864;52.998;9.068;2023-12-07T01:17:23;21.30;;;14.87;;
11616;SDS011;5864;52.998;9.068;2023-12-07T01:20:09;21.40;;;15.93;;
11616;SDS011;5864;52.998;9.068;2023-12-07T01:22:55;19.30;;;14.90;;
11616;SDS011;5864;52.998;9.068;2023-12-07T01:25:41;23.47;;;15.93;;
11616;SDS011;5864;52.998;9.068;2023-12-07T01:28:29;21.33;;;15.30;;
11616;SDS011;5864;52.998;9.068;2023-12-07T01:31:14;20.63;;;15.37;;
11616;SDS011;5864;52.998;9.068;2023-12-07T01:34:00;21.87;;;15.47;;
11616;SDS011;5864;52.998;9.068;2023-12-07T01:36:46;23.57;;;15.43;;
11616;SDS011;5864;52.998;9.068;2023-12-07T01:39:31;24.10;;;16.47;;
11616;SDS011;5864;52.998;9.068;2023-12-07T01:42:17;21.73;;;15.43;;
11616;SDS011;5864;52.998;9.068;2023-12-07T01:45:06;24.37;;;16.20;;
11616;SDS011;5864;52.998;9.068;2023-12-07T01:47:52;23.47;;;15.93;;
11616;SDS011;5864;52.998;9.068;2023-12-07T01:50:39;23.37;;;15.87;;
11616;SDS011;5864;52.998;9.068;2023-12-07T01:53:24;19.23;;;14.57;;
11616;SDS011;5864;52.998;9.068;2023-12-07T01:56:11;21.43;;;15.07;;
11616;SDS011;5864;52.998;9.068;2023-12-07T01:58:57;20.17;;;14.33;;
11616;SDS011;5864;52.998;9.068;2023-12-07T02:01:44;21.83;;;15.40;;
11616;SDS011;5864;52.998;9.068;2023-12-07T02:04:31;24.90;;;16.13;;
11616;SDS011;5864;52.998;9.068;2023-12-07T02:07:17;25.13;;;15.77;;
11616;SDS011;5864;52.998;9.068;2023-12-07T02:10:03;21.07;;;15.43;;
11616;SDS011;5864;52.998;9.068;2023-12-07T02:12:50;20.30;;;14.97;;
11616;SDS011;5864;52.998;9.068;2023-12-07T02:15:36;21.37;;;15.73;;
11616;SDS011;5864;52.998;9.068;2023-12-07T02:18:24;24.07;;;15.30;;
11616;SDS011;5864;52.998;9.068;2023-12-07T02:21:16;22.27;;;15.83;;
11616;SDS011;5864;52.998;9.068;2023-12-07T02:24:07;21.37;;;15.00;;
11616;SDS011;5864;52.998;9.068;2023-12-07T02:26:57;23.83;;;15.87;;
11616;SDS011;5864;52.998;9.068;2023-12-07T02:29:43;22.37;;;15.67;;
11616;SDS011;5864;52.998;9.068;2023-12-07T02:32:28;20.43;;;14.90;;
11616;SDS011;5864;52.998;9.068;2023-12-07T02:35:15;22.17;;;15.47;;
11616;SDS011;5864;52.998;9.068;2023-12-07T02:38:00;20.10;;;13.70;;
11616;SDS011;5864;52.998;9.068;2023-12-07T02:40:47;19.70;;;14.57;;
11616;SDS011;5864;52.998;9.068;2023-12-07T02:43:36;21.80;;;15.87;;
11616;SDS011;5864;52.998;9.068;2023-12-07T02:46:22;20.13;;;14.83;;
11616;SDS011;5864;52.998;9.068;2023-12-07T02:49:08;23.43;;;14.47;;
11616;SDS011;5864;52.998;9.068;2023-12-07T02:51:53;19.93;;;14.33;;
11616;SDS011;5864;52.998;9.068;2023-12-07T02:54:39;23.17;;;15.70;;
11616;SDS011;5864;52.998;9.068;2023-12-07T02:57:25;21.00;;;15.43;;
11616;SDS011;5864;52.998;9.068;2023-12-07T03:00:12;19.97;;;14.60;;
11616;SDS011;5864;52.998;9.068;2023-12-07T03:02:58;19.13;;;14.70;;
11616;SDS011;5864;52.998;9.068;2023-12-07T03:05:44;19.27;;;14.47;;
11616;SDS011;5864;52.998;9.068;2023-12-07T03:08:30;18.87;;;14.13;;
11616;SDS011;5864;52.998;9.068;2023-12-07T03:11:15;17.87;;;13.90;;
11616;SDS011;5864;52.998;9.068;2023-12-07T03:14:01;19.87;;;13.73;;
11616;SDS011;5864;52.998;9.068;2023-12-07T03:16:49;20.17;;;13.97;;
11616;SDS011;5864;52.998;9.068;2023-12-07T03:19:37;18.57;;;14.53;;
11616;SDS011;5864;52.998;9.068;2023-12-07T03:22:23;20.50;;;14.60;;
11616;SDS011;5864;52.998;9.068;2023-12-07T03:25:08;19.27;;;14.83;;
11616;SDS011;5864;52.998;9.068;2023-12-07T03:27:54;22.00;;;15.00;;
11616;SDS011;5864;52.998;9.068;2023-12-07T03:30:39;18.73;;;14.07;;
11616;SDS011;5864;52.998;9.068;2023-12-07T03:33:26;20.00;;;13.70;;
11616;SDS011;5864;52.998;9.068;2023-12-07T03:36:12;21.20;;;14.70;;
11616;SDS011;5864;52.998;9.068;2023-12-07T03:38:57;18.60;;;14.00;;
11616;SDS011;5864;52.998;9.068;2023-12-07T03:41:44;22.70;;;14.27;;
11616;SDS011;5864;52.998;9.068;2023-12-07T03:44:30;20.47;;;14.03;;
11616;SDS011;5864;52.998;9.068;2023-12-07T03:47:15;18.80;;;13.50;;
11616;SDS011;5864;52.998;9.068;2023-12-07T03:50:03;18.90;;;14.17;;
11616;SDS011;5864;52.998;9.068;2023-12-07T03:52:50;20.40;;;15.03;;
11616;SDS011;5864;52.998;9.068;2023-12-07T03:55:36;17.43;;;13.47;;
11616;SDS011;5864;52.998;9.068;2023-12-07T03:58:21;18.07;;;13.83;;
11616;SDS011;5864;52.998;9.068;2023-12-07T04:01:07;18.27;;;13.43;;
11616;SDS011;5864;52.998;9.068;2023-12-07T04:03:53;20.33;;;14.60;;
11616;SDS011;5864;52.998;9.068;2023-12-07T04:06:41;17.93;;;13.20;;
11616;SDS011;5864;52.998;9.068;2023-12-07T04:09:27;19.30;;;13.60;;
11616;SDS011;5864;52.998;9.068;2023-12-07T04:12:12;20.03;;;15.00;;
11616;SDS011;5864;52.998;9.068;2023-12-07T04:14:58;22.27;;;14.03;;
11616;SDS011;5864;52.998;9.068;2023-12-07T04:17:44;16.70;;;13.40;;
11616;SDS011;5864;52.998;9.068;2023-12-07T04:20:29;18.10;;;13.47;;
11616;SDS011;5864;52.998;9.068;2023-12-07T04:23:17;16.93;;;13.13;;
11616;SDS011;5864;52.998;9.068;2023-12-07T04:26:03;17.30;;;13.03;;
11616;SDS011;5864;52.998;9.068;2023-12-07T04:28:50;16.90;;;13.17;;
11616;SDS011;5864;52.998;9.068;2023-12-07T04:31:35;16.77;;;12.93;;
11616;SDS011;5864;52.998;9.068;2023-12-07T04:34:21;20.03;;;13.47;;
11616;SDS011;5864;52.998;9.068;2023-12-07T04:37:07;19.03;;;13.90;;
11616;SDS011;5864;52.998;9.068;2023-12-07T04:39:53;17.90;;;13.07;;
11616;SDS011;5864;52.998;9.068;2023-12-07T04:42:39;18.20;;;12.93;;
11616;SDS011;5864;52.998;9.068;2023-12-07T04:45:24;21.37;;;13.97;;
11616;SDS011;5864;52.998;9.068;2023-12-07T04:48:10;18.53;;;13.13;;
11616;SDS011;5864;52.998;9.068;2023-12-07T04:50:56;18.30;;;13.90;;
11616;SDS011;5864;52.998;9.068;2023-12-07T04:53:41;20.30;;;14.27;;
11616;SDS011;5864;52.998;9.068;2023-12-07T04:56:28;17.90;;;13.50;;
11616;SDS011;5864;52.998;9.068;2023-12-07T04:59:14;20.17;;;14.57;;
11616;SDS011;5864;52.998;9.068;2023-12-07T05:02:00;18.37;;;13.37;;
11616;SDS011;5864;52.998;9.068;2023-12-07T05:04:45;20.67;;;13.67;;
11616;SDS011;5864;52.998;9.068;2023-12-07T05:07:31;17.83;;;13.23;;
11616;SDS011;5864;52.998;9.068;2023-12-07T05:10:18;18.20;;;13.47;;
11616;SDS011;5864;52.998;9.068;2023-12-07T05:13:05;17.83;;;12.90;;
11616;SDS011;5864;52.998;9.068;2023-12-07T05:15:51;17.27;;;12.97;;
11616;SDS011;5864;52.998;9.068;2023-12-07T05:18:36;18.20;;;12.80;;
11616;SDS011;5864;52.998;9.068;2023-12-07T05:21:22;17.10;;;13.30;;
11616;SDS011;5864;52.998;9.068;2023-12-07T05:24:08;19.88;;;14.35;;
11616;SDS011;5864;52.998;9.068;2023-12-07T05:26:53;18.43;;;13.30;;
11616;SDS011;5864;52.998;9.068;2023-12-07T05:29:40;17.53;;;13.37;;
11616;SDS011;5864;52.998;9.068;2023-12-07T05:32:25;19.10;;;13.80;;
11616;SDS011;5864;52.998;9.068;2023-12-07T05:35:11;18.80;;;13.47;;
11616;SDS011;5864;52.998;9.068;2023-12-07T05:37:57;20.83;;;13.87;;
11616;SDS011;5864;52.998;9.068;2023-12-07T05:40:43;19.33;;;13.63;;
11616;SDS011;5864;52.998;9.068;2023-12-07T05:43:28;18.90;;;12.80;;
11616;SDS011;5864;52.998;9.068;2023-12-07T05:46:16;18.27;;;12.93;;
11616;SDS011;5864;52.998;9.068;2023-12-07T05:49:02;19.77;;;13.07;;
11616;SDS011;5864;52.998;9.068;2023-12-07T05:51:48;17.37;;;13.40;;
11616;SDS011;5864;52.998;9.068;2023-12-07T05:54:33;20.70;;;13.57;;
11616;SDS011;5864;52.998;9.068;2023-12-07T05:57:19;20.40;;;14.30;;
11616;SDS011;5864;52.998;9.068;2023-12-07T06:00:05;17.53;;;12.20;;
11616;SDS011;5864;52.998;9.068;2023-12-07T06:02:54;16.57;;;12.83;;
11616;SDS011;5864;52.998;9.068;2023-12-07T06:05:40;19.93;;;13.87;;
11616;SDS011;5864;52.998;9.068;2023-12-07T06:08:26;18.03;;;13.33;;
11616;SDS011;5864;52.998;9.068;2023-12-07T06:11:11;17.60;;;13.23;;
11616;SDS011;5864;52.998;9.068;2023-12-07T06:13:57;17.20;;;12.93;;
11616;SDS011;5864;52.998;9.068;2023-12-07T06:16:44;18.57;;;13.53;;
11616;SDS011;5864;52.998;9.068;2023-12-07T06:19:31;17.50;;;13.23;;
11616;SDS011;5864;52.998;9.068;2023-12-07T06:22:16;16.23;;;12.27;;
11616;SDS011;5864;52.998;9.068;2023-12-07T06:25:03;20.57;;;13.63;;
11616;SDS011;5864;52.998;9.068;2023-12-07T06:27:49;17.97;;;13.57;;
11616;SDS011;5864;52.998;9.068;2023-12-07T06:30:34;17.93;;;13.53;;
11616;SDS011;5864;52.998;9.068;2023-12-07T06:33:20;23.00;;;15.50;;
11616;SDS011;5864;52.998;9.068;2023-12-07T06:36:08;17.67;;;13.43;;
11616;SDS011;5864;52.998;9.068;2023-12-07T06:38:53;20.50;;;14.37;;
11616;SDS011;5864;52.998;9.068;2023-12-07T06:41:40;20.00;;;13.70;;
11616;SDS011;5864;52.998;9.068;2023-12-07T06:44:25;17.67;;;12.90;;
11616;SDS011;5864;52.998;9.068;2023-12-07T06:47:11;18.70;;;14.20;;
11616;SDS011;5864;52.998;9.068;2023-12-07T06:49:56;17.40;;;13.10;;
11616;SDS011;5864;52.998;9.068;2023-12-07T06:52:44;18.47;;;13.17;;
11616;SDS011;5864;52.998;9.068;2023-12-07T06:55:29;18.33;;;14.23;;
11616;SDS011;5864;52.998;9.068;2023-12-07T06:58:15;19.83;;;13.80;;
11616;SDS011;5864;52.998;9.068;2023-12-07T07:01:01;21.20;;;13.87;;
11616;SDS011;5864;52.998;9.068;2023-12-07T07:03:47;21.13;;;14.77;;
11616;SDS011;5864;52.998;9.068;2023-12-07T07:06:33;16.63;;;13.07;;
11616;SDS011;5864;52.998;9.068;2023-12-07T07:09:20;18.47;;;13.43;;
11616;SDS011;5864;52.998;9.068;2023-12-07T07:12:06;22.33;;;14.97;;
11616;SDS011;5864;52.998;9.068;2023-12-07T07:14:52;20.13;;;13.60;;
11616;SDS011;5864;52.998;9.068;2023-12-07T07:17:38;19.57;;;13.70;;
11616;SDS011;5864;52.998;9.068;2023-12-07T07:20:24;20.77;;;13.47;;
11616;SDS011;5864;52.998;9.068;2023-12-07T07:23:11;22.47;;;14.07;;
11616;SDS011;5864;52.998;9.068;2023-12-07T07:25:58;20.43;;;15.27;;
11616;SDS011;5864;52.998;9.068;2023-12-07T07:28:43;42.80;;;24.83;;
11616;SDS011;5864;52.998;9.068;2023-12-07T07:31:29;20.90;;;14.90;;
11616;SDS011;5864;52.998;9.068;2023-12-07T07:34:14;18.83;;;14.23;;
11616;SDS011;5864;52.998;9.068;2023-12-07T07:37:01;19.83;;;14.73;;
11616;SDS011;5864;52.998;9.068;2023-12-07T07:39:46;21.10;;;13.47;;
11616;SDS011;5864;52.998;9.068;2023-12-07T07:42:33;20.60;;;13.77;;
11616;SDS011;5864;52.998;9.068;2023-12-07T07:45:19;17.83;;;13.10;;
11616;SDS011;5864;52.998;9.068;2023-12-07T07:48:05;18.10;;;13.53;;
11616;SDS011;5864;52.998;9.068;2023-12-07T07:50:50;20.37;;;13.43;;
11616;SDS011;5864;52.998;9.068;2023-12-07T07:53:36;19.20;;;12.30;;
11616;SDS011;5864;52.998;9.068;2023-12-07T07:56:22;19.03;;;14.40;;
11616;SDS011;5864;52.998;9.068;2023-12-07T07:59:09;20.83;;;14.37;;
11616;SDS011;5864;52.998;9.068;2023-12-07T08:01:54;21.47;;;15.10;;
11616;SDS011;5864;52.998;9.068;2023-12-07T08:04:40;38.90;;;22.87;;
11616;SDS011;5864;52.998;9.068;2023-12-07T08:07:26;21.67;;;14.70;;
11616;SDS011;5864;52.998;9.068;2023-12-07T08:10:12;18.77;;;12.70;;
11616;SDS011;5864;52.998;9.068;2023-12-07T08:12:57;18.57;;;13.07;;
11616;SDS011;5864;52.998;9.068;2023-12-07T08:15:44;19.87;;;13.97;;
11616;SDS011;5864;52.998;9.068;2023-12-07T08:18:30;18.57;;;13.57;;
11616;SDS011;5864;52.998;9.068;2023-12-07T08:21:19;21.40;;;13.93;;
11616;SDS011;5864;52.998;9.068;2023-12-07T08:24:05;19.37;;;14.10;;
11616;SDS011;5864;52.998;9.068;2023-12-07T08:26:52;20.77;;;14.10;;
11616;SDS011;5864;52.998;9.068;2023-12-07T08:29:37;20.57;;;14.40;;
11616;SDS011;5864;52.998;9.068;2023-12-07T08:32:24;18.00;;;13.00;;
11616;SDS011;5864;52.998;9.068;2023-12-07T08:35:10;20.87;;;14.10;;
11616;SDS011;5864;52.998;9.068;2023-12-07T08:37:56;23.27;;;14.90;;
11616;SDS011;5864;52.998;9.068;2023-12-07T08:40:41;22.90;;;15.07;;
11616;SDS011;5864;52.998;9.068;2023-12-07T08:43:28;22.07;;;14.17;;
11616;SDS011;5864;52.998;9.068;2023-12-07T08:46:14;20.13;;;14.60;;
11616;SDS011;5864;52.998;9.068;2023-12-07T08:49:01;20.33;;;13.90;;
11616;SDS011;5864;52.998;9.068;2023-12-07T08:51:46;20.47;;;14.23;;
11616;SDS011;5864;52.998;9.068;2023-12-07T08:54:33;20.27;;;13.53;;
11616;SDS011;5864;52.998;9.068;2023-12-07T08:57:19;19.17;;;13.27;;
11616;SDS011;5864;52.998;9.068;2023-12-07T09:00:05;19.57;;;13.13;;
11616;SDS011;5864;52.998;9.068;2023-12-07T09:02:52;19.93;;;13.83;;
11616;SDS011;5864;52.998;9.068;2023-12-07T09:05:39;19.83;;;13.07;;
11616;SDS011;5864;52.998;9.068;2023-12-07T09:08:25;18.93;;;13.27;;
11616;SDS011;5864;52.998;9.068;2023-12-07T09:11:11;19.27;;;13.90;;
11616;SDS011;5864;52.998;9.068;2023-12-07T09:13:56;18.10;;;11.83;;
11616;SDS011;5864;52.998;9.068;2023-12-07T09:16:42;19.67;;;12.90;;
11616;SDS011;5864;52.998;9.068;2023-12-07T09:19:29;18.37;;;13.07;;
11616;SDS011;5864;52.998;9.068;2023-12-07T09:22:16;19.63;;;13.07;;
11616;SDS011;5864;52.998;9.068;2023-12-07T09:25:02;18.77;;;12.57;;
11616;SDS011;5864;52.998;9.068;2023-12-07T09:27:47;20.03;;;13.73;;
11616;SDS011;5864;52.998;9.068;2023-12-07T09:30:35;19.73;;;12.10;;
11616;SDS011;5864;52.998;9.068;2023-12-07T09:33:20;15.93;;;11.77;;
11616;SDS011;5864;52.998;9.068;2023-12-07T09:36:06;17.50;;;12.30;;
11616;SDS011;5864;52.998;9.068;2023-12-07T09:38:56;16.70;;;11.50;;
11616;SDS011;5864;52.998;9.068;2023-12-07T09:41:41;16.90;;;11.87;;
11616;SDS011;5864;52.998;9.068;2023-12-07T09:44:30;17.23;;;11.80;;
11616;SDS011;5864;52.998;9.068;2023-12-07T09:47:16;16.00;;;11.63;;
11616;SDS011;5864;52.998;9.068;2023-12-07T09:50:02;16.93;;;11.70;;
11616;SDS011;5864;52.998;9.068;2023-12-07T09:52:48;15.20;;;11.27;;
11616;SDS011;5864;52.998;9.068;2023-12-07T09:55:36;20.10;;;12.43;;
11616;SDS011;5864;52.998;9.068;2023-12-07T09:58:21;16.13;;;11.97;;
11616;SDS011;5864;52.998;9.068;2023-12-07T10:01:07;20.27;;;12.73;;
11616;SDS011;5864;52.998;9.068;2023-12-07T10:04:07;17.43;;;12.47;;
11616;SDS011;5864;52.998;9.068;2023-12-07T10:06:59;15.80;;;11.07;;
11616;SDS011;5864;52.998;9.068;2023-12-07T10:09:47;18.17;;;12.43;;
11616;SDS011;5864;52.998;9.068;2023-12-07T10:12:34;18.10;;;11.93;;
11616;SDS011;5864;52.998;9.068;2023-12-07T10:15:20;16.00;;;11.37;;
11616;SDS011;5864;52.998;9.068;2023-12-07T10:18:08;18.03;;;12.17;;
11616;SDS011;5864;52.998;9.068;2023-12-07T10:20:53;18.37;;;11.97;;
11616;SDS011;5864;52.998;9.068;2023-12-07T10:23:40;15.70;;;11.13;;
11616;SDS011;5864;52.998;9.068;2023-12-07T10:26:30;14.10;;;10.53;;
11616;SDS011;5864;52.998;9.068;2023-12-07T10:29:18;14.60;;;10.50;;
11616;SDS011;5864;52.998;9.068;2023-12-07T10:32:07;16.40;;;10.87;;
11616;SDS011;5864;52.998;9.068;2023-12-07T10:34:55;17.10;;;11.27;;
11616;SDS011;5864;52.998;9.068;2023-12-07T10:37:43;19.27;;;12.30;;
11616;SDS011;5864;52.998;9.068;2023-12-07T10:40:28;16.17;;;11.63;;
11616;SDS011;5864;52.998;9.068;2023-12-07T10:43:14;16.30;;;11.40;;
11616;SDS011;5864;52.998;9.068;2023-12-07T10:46:05;14.63;;;11.60;;
11616;SDS011;5864;52.998;9.068;2023-12-07T10:48:55;15.80;;;11.80;;
11616;SDS011;5864;52.998;9.068;2023-12-07T10:51:45;17.50;;;11.93;;
11616;SDS011;5864;52.998;9.068;2023-12-07T10:54:37;15.27;;;11.57;;
11616;SDS011;5864;52.998;9.068;2023-12-07T10:57:28;15.30;;;12.17;;
11616;SDS011;5864;52.998;9.068;2023-12-07T11:00:15;16.60;;;12.07;;
11616;SDS011;5864;52.998;9.068;2023-12-07T11:03:04;16.77;;;11.63;;
11616;SDS011;5864;52.998;9.068;2023-12-07T11:05:50;15.70;;;11.73;;
11616;SDS011;5864;52.998;9.068;2023-12-07T11:08:38;15.87;;;11.27;;
11616;SDS011;5864;52.998;9.068;2023-12-07T11:11:29;16.77;;;11.53;;
11616;SDS011;5864;52.998;9.068;2023-12-07T11:14:17;17.00;;;12.07;;
11616;SDS011;5864;52.998;9.068;2023-12-07T11:17:03;17.60;;;11.23;;
11616;SDS011;5864;52.998;9.068;2023-12-07T11:19:50;17.10;;;11.97;;
11616;SDS011;5864;52.998;9.068;2023-12-07T11:22:36;17.40;;;11.67;;
11616;SDS011;5864;52.998;9.068;2023-12-07T11:25:21;14.20;;;10.97;;
11616;SDS011;5864;52.998;9.068;2023-12-07T11:28:07;15.33;;;11.23;;
11616;SDS011;5864;52.998;9.068;2023-12-07T11:30:55;16.50;;;11.60;;
11616;SDS011;5864;52.998;9.068;2023-12-07T11:33:41;17.23;;;12.40;;
11616;SDS011;5864;52.998;9.068;2023-12-07T11:36:28;16.47;;;11.60;;
11616;SDS011;5864;52.998;9.068;2023-12-07T11:39:17;20.47;;;13.30;;
11616;SDS011;5864;52.998;9.068;2023-12-07T11:42:09;18.67;;;11.83;;
11616;SDS011;5864;52.998;9.068;2023-12-07T11:44:56;16.83;;;12.17;;
11616;SDS011;5864;52.998;9.068;2023-12-07T11:47:41;18.67;;;12.57;;
11616;SDS011;5864;52.998;9.068;2023-12-07T11:50:31;16.17;;;12.23;;
11616;SDS011;5864;52.998;9.068;2023-12-07T11:53:21;18.60;;;11.67;;
11616;SDS011;5864;52.998;9.068;2023-12-07T11:56:08;17.10;;;12.47;;
11616;SDS011;5864;52.998;9.068;2023-12-07T11:58:55;21.73;;;12.83;;
11616;SDS011;5864;52.998;9.068;2023-12-07T12:01:46;19.63;;;13.37;;
11616;SDS011;5864;52.998;9.068;2023-12-07T12:04:32;19.57;;;13.53;;
11616;SDS011;5864;52.998;9.068;2023-12-07T12:07:17;23.23;;;12.97;;
11616;SDS011;5864;52.998;9.068;2023-12-07T12:10:05;19.40;;;14.17;;
11616;SDS011;5864;52.998;9.068;2023-12-07T12:12:53;20.57;;;13.30;;
11616;SDS011;5864;52.998;9.068;2023-12-07T12:15:38;18.57;;;12.87;;
11616;SDS011;5864;52.998;9.068;2023-12-07T12:18:24;18.07;;;12.53;;
11616;SDS011;5864;52.998;9.068;2023-12-07T12:21:10;19.00;;;12.87;;
11616;SDS011;5864;52.998;9.068;2023-12-07T12:23:57;22.80;;;13.23;;
11616;SDS011;5864;52.998;9.068;2023-12-07T12:26:44;16.47;;;12.37;;
11616;SDS011;5864;52.998;9.068;2023-12-07T12:29:32;19.60;;;13.13;;
11616;SDS011;5864;52.998;9.068;2023-12-07T12:32:18;19.90;;;13.00;;
11616;SDS011;5864;52.998;9.068;2023-12-07T12:35:07;20.40;;;13.43;;
11616;SDS011;5864;52.998;9.068;2023-12-07T12:37:53;20.80;;;14.20;;
11616;SDS011;5864;52.998;9.068;2023-12-07T12:40:39;20.77;;;13.43;;
11616;SDS011;5864;52.998;9.068;2023-12-07T12:43:27;20.60;;;13.70;;
11616;SDS011;5864;52.998;9.068;2023-12-07T12:46:14;19.00;;;12.80;;
11616;SDS011;5864;52.998;9.068;2023-12-07T12:49:00;21.57;;;13.03;;
11616;SDS011;5864;52.998;9.068;2023-12-07T12:51:48;19.17;;;12.80;;
11616;SDS011;5864;52.998;9.068;2023-12-07T12:54:33;19.07;;;13.13;;
11616;SDS011;5864;52.998;9.068;2023-12-07T12:57:19;22.17;;;13.00;;
11616;SDS011;5864;52.998;9.068;2023-12-07T13:00:06;18.97;;;14.17;;
11616;SDS011;5864;52.998;9.068;2023-12-07T13:02:54;19.50;;;13.37;;
11616;SDS011;5864;52.998;9.068;2023-12-07T13:05:40;19.87;;;13.50;;
11616;SDS011;5864;52.998;9.068;2023-12-07T13:08:26;19.67;;;13.37;;
11616;SDS011;5864;52.998;9.068;2023-12-07T13:11:14;21.70;;;13.00;;
11616;SDS011;5864;52.998;9.068;2023-12-07T13:14:00;18.27;;;14.03;;
11616;SDS011;5864;52.998;9.068;2023-12-07T13:16:51;20.73;;;14.60;;
11616;SDS011;5864;52.998;9.068;2023-12-07T13:19:37;20.90;;;14.27;;
11616;SDS011;5864;52.998;9.068;2023-12-07T13:22:23;19.27;;;13.50;;
11616;SDS011;5864;52.998;9.068;2023-12-07T13:25:09;21.27;;;15.13;;
11616;SDS011;5864;52.998;9.068;2023-12-07T13:27:56;24.70;;;14.33;;
11616;SDS011;5864;52.998;9.068;2023-12-07T13:30:44;18.57;;;13.30;;
11616;SDS011;5864;52.998;9.068;2023-12-07T13:33:31;21.57;;;14.37;;
11616;SDS011;5864;52.998;9.068;2023-12-07T13:36:16;21.17;;;14.23;;
11616;SDS011;5864;52.998;9.068;2023-12-07T13:39:02;19.23;;;14.20;;
11616;SDS011;5864;52.998;9.068;2023-12-07T13:41:48;19.87;;;14.17;;
11616;SDS011;5864;52.998;9.068;2023-12-07T13:44:34;24.07;;;15.10;;
11616;SDS011;5864;52.998;9.068;2023-12-07T13:47:19;19.73;;;14.10;;
11616;SDS011;5864;52.998;9.068;2023-12-07T13:50:10;20.17;;;14.83;;
11616;SDS011;5864;52.998;9.068;2023-12-07T13:52:55;22.13;;;14.77;;
11616;SDS011;5864;52.998;9.068;2023-12-07T13:55:42;23.23;;;14.20;;
11616;SDS011;5864;52.998;9.068;2023-12-07T13:58:27;23.27;;;15.50;;
11616;SDS011;5864;52.998;9.068;2023-12-07T14:01:13;22.27;;;14.77;;
11616;SDS011;5864;52.998;9.068;2023-12-07T14:03:59;22.70;;;14.53;;
11616;SDS011;5864;52.998;9.068;2023-12-07T14:06:46;19.87;;;13.77;;
11616;SDS011;5864;52.998;9.068;2023-12-07T14:09:32;22.00;;;13.93;;
11616;SDS011;5864;52.998;9.068;2023-12-07T14:12:18;22.37;;;14.77;;
11616;SDS011;5864;52.998;9.068;2023-12-07T14:15:04;19.07;;;13.83;;
11616;SDS011;5864;52.998;9.068;2023-12-07T14:17:50;23.97;;;14.23;;
11616;SDS011;5864;52.998;9.068;2023-12-07T14:20:36;19.80;;;13.73;;
11616;SDS011;5864;52.998;9.068;2023-12-07T14:23:23;22.73;;;13.73;;
11616;SDS011;5864;52.998;9.068;2023-12-07T14:26:08;22.40;;;13.73;;
11616;SDS011;5864;52.998;9.068;2023-12-07T14:28:54;20.83;;;14.43;;
11616;SDS011;5864;52.998;9.068;2023-12-07T14:31:40;20.77;;;14.10;;
11616;SDS011;5864;52.998;9.068;2023-12-07T14:34:25;22.07;;;13.67;;
11616;SDS011;5864;52.998;9.068;2023-12-07T14:37:11;20.97;;;13.63;;
11616;SDS011;5864;52.998;9.068;2023-12-07T14:39:58;20.13;;;13.87;;
11616;SDS011;5864;52.998;9.068;2023-12-07T14:42:43;20.97;;;12.70;;
11616;SDS011;5864;52.998;9.068;2023-12-07T14:45:29;24.10;;;14.73;;
11616;SDS011;5864;52.998;9.068;2023-12-07T14:48:16;18.10;;;13.83;;
11616;SDS011;5864;52.998;9.068;2023-12-07T14:51:01;22.67;;;14.57;;
11616;SDS011;5864;52.998;9.068;2023-12-07T14:53:47;19.57;;;12.83;;
11616;SDS011;5864;52.998;9.068;2023-12-07T14:56:35;20.10;;;13.53;;
11616;SDS011;5864;52.998;9.068;2023-12-07T14:59:21;19.57;;;13.67;;
11616;SDS011;5864;52.998;9.068;2023-12-07T15:02:06;21.97;;;13.30;;
11616;SDS011;5864;52.998;9.068;2023-12-07T15:04:54;20.17;;;14.33;;
11616;SDS011;5864;52.998;9.068;2023-12-07T15:07:40;24.27;;;15.13;;
11616;SDS011;5864;52.998;9.068;2023-12-07T15:10:26;24.38;;;16.48;;
11616;SDS011;5864;52.998;9.068;2023-12-07T15:13:13;20.73;;;13.90;;
11616;SDS011;5864;52.998;9.068;2023-12-07T15:15:58;20.27;;;13.37;;
11616;SDS011;5864;52.998;9.068;2023-12-07T15:18:45;22.47;;;14.10;;
11616;SDS011;5864;52.998;9.068;2023-12-07T15:21:30;22.90;;;14.23;;
11616;SDS011;5864;52.998;9.068;2023-12-07T15:24:17;24.60;;;14.97;;
11616;SDS011;5864;52.998;9.068;2023-12-07T15:27:05;24.40;;;14.87;;
11616;SDS011;5864;52.998;9.068;2023-12-07T15:29:53;26.90;;;15.83;;
11616;SDS011;5864;52.998;9.068;2023-12-07T15:32:39;23.63;;;15.00;;
11616;SDS011;5864;52.998;9.068;2023-12-07T15:35:24;22.10;;;14.63;;
11616;SDS011;5864;52.998;9.068;2023-12-07T15:38:10;23.07;;;14.50;;
11616;SDS011;5864;52.998;9.068;2023-12-07T15:40:55;22.20;;;14.37;;
11616;SDS011;5864;52.998;9.068;2023-12-07T15:43:42;22.20;;;14.87;;
11616;SDS011;5864;52.998;9.068;2023-12-07T15:46:29;24.77;;;13.50;;
11616;SDS011;5864;52.998;9.068;2023-12-07T15:49:15;22.10;;;13.77;;
11616;SDS011;5864;52.998;9.068;2023-12-07T15:52:01;20.80;;;14.07;;
11616;SDS011;5864;52.998;9.068;2023-12-07T15:54:46;21.70;;;14.10;;
11616;SDS011;5864;52.998;9.068;2023-12-07T15:57:32;29.30;;;16.90;;
11616;SDS011;5864;52.998;9.068;2023-12-07T16:00:18;24.53;;;15.90;;
11616;SDS011;5864;52.998;9.068;2023-12-07T16:03:05;24.60;;;15.03;;
11616;SDS011;5864;52.998;9.068;2023-12-07T16:05:50;23.73;;;15.70;;
11616;SDS011;5864;52.998;9.068;2023-12-07T16:08:37;27.13;;;16.17;;
11616;SDS011;5864;52.998;9.068;2023-12-07T16:11:22;27.33;;;16.27;;
11616;SDS011;5864;52.998;9.068;2023-12-07T16:14:08;26.83;;;16.00;;
11616;SDS011;5864;52.998;9.068;2023-12-07T16:16:55;26.90;;;15.90;;
11616;SDS011;5864;52.998;9.068;2023-12-07T16:19:42;26.37;;;16.83;;
11616;SDS011;5864;52.998;9.068;2023-12-07T16:22:27;27.30;;;17.17;;
11616;SDS011;5864;52.998;9.068;2023-12-07T16:25:13;29.33;;;18.27;;
11616;SDS011;5864;52.998;9.068;2023-12-07T16:27:59;29.37;;;17.93;;